Time;durP1;ratioP1;P1;durP2;ratioP2;P2;SDS_P1;SDS_P2;PMS_P1;PMS_P2;Temp;Humidity;BMP_temperature;BMP_pressure;BME280_temperature;BME280_humidity;BME280_pressure;Samples;Min_cycle;Max_cycle;Signal;HPM_P1;HPM_P2
2023/09/09 00:01:33;;;;;;;10.13;6.65;;;;;;;-142.57;59.62;115900.28;5067921;28;20056;-82
2023/09/09 00:03:59;;;;;;;9.93;6.07;;;;;;;-142.57;59.46;115900.28;5060223;28;20040;-82
2023/09/09 00:06:25;;;;;;;17.02;6.50;;;;;;;-142.57;59.98;115900.28;5057832;28;20494;-83
2023/09/09 00:08:53;;;;;;;16.98;6.53;;;;;;;-142.57;59.94;115900.28;5057746;28;20021;-80
2023/09/09 00:11:19;;;;;;;12.52;6.20;;;;;;;-142.57;60.36;115900.28;5057803;28;20043;-84
2023/09/09 00:13:51;;;;;;;14.18;6.75;;;;;;;-142.57;59.69;115900.28;5040607;28;20045;-79
2023/09/09 00:16:17;;;;;;;8.73;6.70;;;;;;;-142.57;60.89;115900.28;5044645;28;20132;-78
2023/09/09 00:18:43;;;;;;;11.65;6.18;;;;;;;-142.57;61.22;115900.28;5059417;28;20486;-77
2023/09/09 00:21:09;;;;;;;11.73;6.57;;;;;;;-142.57;61.35;115900.28;5055482;28;20503;-80
2023/09/09 00:23:34;;;;;;;10.02;6.38;;;;;;;-142.57;61.07;115900.28;5056136;28;20045;-78
2023/09/09 00:26:00;;;;;;;11.55;5.80;;;;;;;-142.57;61.25;115900.28;5037954;28;20108;-77
2023/09/09 00:28:25;;;;;;;9.00;6.88;;;;;;;-142.57;61.84;115900.28;5055636;28;20423;-80
2023/09/09 00:30:51;;;;;;;13.10;6.93;;;;;;;-142.57;61.80;115900.28;5056319;28;20021;-79
2023/09/09 00:33:17;;;;;;;13.38;7.10;;;;;;;-142.57;62.22;115900.28;5055357;28;20041;-79
2023/09/09 00:35:43;;;;;;;13.20;7.20;;;;;;;-142.57;61.97;115900.28;5037876;28;20400;-80
2023/09/09 00:38:11;;;;;;;10.43;6.80;;;;;;;-142.57;62.41;115900.28;5038216;28;20221;-80
2023/09/09 00:40:37;;;;;;;8.18;6.22;;;;;;;-142.57;63.01;115900.28;5055617;28;20029;-77
2023/09/09 00:43:03;;;;;;;11.82;5.80;;;;;;;-142.57;62.87;115900.28;5037825;28;20430;-78
2023/09/09 00:45:29;;;;;;;8.48;6.32;;;;;;;-142.57;63.09;115900.28;5037746;28;20044;-83
2023/09/09 00:47:55;;;;;;;8.88;6.97;;;;;;;-142.57;63.65;115900.28;5037532;28;20491;-81
2023/09/09 00:50:23;;;;;;;10.52;6.63;;;;;;;-142.57;63.60;115900.28;5055553;28;20033;-81
2023/09/09 00:52:49;;;;;;;8.82;6.43;;;;;;;-142.57;63.64;115900.28;5038132;28;20041;-81
2023/09/09 00:55:17;;;;;;;10.18;6.55;;;;;;;-142.57;63.44;115900.28;5038406;28;20507;-83
2023/09/09 00:57:43;;;;;;;10.30;7.15;;;;;;;-142.57;63.83;115900.28;5039810;28;20048;-85
2023/09/09 01:00:09;;;;;;;13.20;6.88;;;;;;;-142.57;64.50;115900.28;5040122;28;20460;-84
2023/09/09 01:02:39;;;;;;;9.73;6.57;;;;;;;-142.57;63.96;115900.28;5056652;28;20037;-86
2023/09/09 01:05:06;;;;;;;14.43;6.20;;;;;;;-142.57;62.88;115900.28;5040319;28;20041;-79
2023/09/09 01:07:45;;;;;;;9.35;6.20;;;;;;;-142.57;62.74;115900.28;5038611;28;20416;-86
2023/09/09 01:10:13;;;;;;;11.50;6.60;;;;;;;-142.57;61.55;115900.28;5038721;28;20055;-83
2023/09/09 01:12:39;;;;;;;9.85;6.40;;;;;;;-142.57;61.63;115900.28;5059122;28;20150;-84
2023/09/09 01:15:06;;;;;;;13.05;5.63;;;;;;;-142.57;60.91;115900.28;5059512;28;20376;-82
2023/09/09 01:17:34;;;;;;;12.10;6.22;;;;;;;-142.57;61.28;115900.28;5056192;28;20029;-83
2023/09/09 01:20:07;;;;;;;10.98;6.45;;;;;;;-142.57;63.17;115900.28;5037605;28;20124;-80
2023/09/09 01:22:35;;;;;;;17.20;6.13;;;;;;;-142.57;63.51;115900.28;5040816;28;20058;-81
2023/09/09 01:25:05;;;;;;;12.52;6.20;;;;;;;-142.57;63.35;115900.28;5059609;28;20464;-78
2023/09/09 01:27:31;;;;;;;14.30;6.57;;;;;;;-142.57;64.95;115900.28;5059030;28;20037;-80
2023/09/09 01:29:57;;;;;;;9.07;5.80;;;;;;;-142.57;64.87;115900.28;5041156;28;20025;-80
2023/09/09 01:32:22;;;;;;;11.05;6.63;;;;;;;-142.57;64.85;115900.28;5058171;28;20032;-82
2023/09/09 01:34:49;;;;;;;9.77;6.18;;;;;;;-142.57;65.71;115900.28;5055808;28;20037;-81
2023/09/09 01:37:14;;;;;;;8.90;7.20;;;;;;;-142.57;66.12;115900.28;5059426;28;20116;-79
2023/09/09 01:39:40;;;;;;;10.43;5.97;;;;;;;-142.57;65.25;115900.28;5054871;28;20103;-83
2023/09/09 01:42:06;;;;;;;10.00;6.30;;;;;;;-142.57;65.18;115900.28;5054606;28;20060;-80
2023/09/09 01:44:31;;;;;;;10.77;6.55;;;;;;;-142.57;65.44;115900.28;5036398;28;20032;-85
2023/09/09 01:46:57;;;;;;;12.98;7.15;;;;;;;-142.57;66.41;115900.28;5054276;28;20067;-79
2023/09/09 01:49:22;;;;;;;11.25;6.78;;;;;;;-142.57;66.79;115900.28;5054124;28;20131;-78
2023/09/09 01:51:48;;;;;;;15.35;7.03;;;;;;;-142.57;66.56;115900.28;5054637;28;20463;-79
2023/09/09 01:54:13;;;;;;;15.52;6.55;;;;;;;-142.57;65.82;115900.28;5054677;28;20063;-84
2023/09/09 01:56:39;;;;;;;11.35;7.22;;;;;;;-142.57;66.60;115900.28;5036593;28;20033;-78
2023/09/09 01:59:04;;;;;;;14.10;7.22;;;;;;;-142.57;67.39;115900.28;5036615;28;20163;-81
2023/09/09 02:01:30;;;;;;;10.38;6.68;;;;;;;-142.57;67.39;115900.28;5037235;28;20155;-82
2023/09/09 02:03:55;;;;;;;10.57;6.70;;;;;;;-142.57;66.86;115900.28;5054971;28;20033;-77
2023/09/09 02:06:21;;;;;;;11.30;7.00;;;;;;;-142.57;66.95;115900.28;5054768;28;20446;-79
2023/09/09 02:08:47;;;;;;;12.90;6.75;;;;;;;-142.57;66.43;115900.28;5054386;28;20029;-79
2023/09/09 02:11:12;;;;;;;13.05;7.15;;;;;;;-142.57;67.45;115900.28;5053979;28;20090;-79
2023/09/09 02:13:38;;;;;;;11.68;6.47;;;;;;;-142.57;66.68;115900.28;5054378;28;20041;-79
2023/09/09 02:16:05;;;;;;;15.60;7.63;;;;;;;-142.57;66.48;115900.28;5035789;28;20069;-80
2023/09/09 02:18:30;;;;;;;14.35;7.55;;;;;;;-142.57;67.25;115900.28;5036367;28;20029;-82
2023/09/09 02:20:57;;;;;;;12.63;6.88;;;;;;;-142.57;67.89;115900.28;5035911;28;20377;-78
2023/09/09 02:23:23;;;;;;;10.38;6.80;;;;;;;-142.57;67.75;115900.28;5052891;28;20037;-79
2023/09/09 02:25:48;;;;;;;10.13;6.00;;;;;;;-142.57;66.89;115900.28;5054338;28;20108;-78
2023/09/09 02:28:14;;;;;;;15.98;7.13;;;;;;;-142.57;67.25;115900.28;5055568;28;20041;-82
2023/09/09 02:30:43;;;;;;;9.63;6.55;;;;;;;-142.57;67.22;115900.28;5055024;28;20033;-83
2023/09/09 02:33:08;;;;;;;14.60;7.38;;;;;;;-142.57;66.82;115900.28;5054824;28;20040;-82
2023/09/09 02:35:34;;;;;;;12.73;7.10;;;;;;;-142.57;67.24;115900.28;5054773;28;20033;-82
2023/09/09 02:38:00;;;;;;;15.68;7.40;;;;;;;-142.57;68.60;115900.28;5054883;28;20475;-80
2023/09/09 02:40:26;;;;;;;10.82;7.55;;;;;;;-142.57;70.12;115900.28;5037019;28;20067;-80
2023/09/09 02:42:51;;;;;;;11.77;7.50;;;;;;;-142.57;72.28;115900.28;5036905;28;20024;-80
2023/09/09 02:45:17;;;;;;;11.48;6.45;;;;;;;-142.57;72.58;115900.28;5036849;28;20033;-79
2023/09/09 02:47:43;;;;;;;14.75;7.63;;;;;;;-142.57;73.82;115900.28;5037050;28;20036;-82
2023/09/09 02:50:09;;;;;;;11.18;7.35;;;;;;;-142.57;73.66;115900.28;5037415;28;20025;-84
2023/09/09 02:52:34;;;;;;;10.07;6.88;;;;;;;-142.57;73.66;115900.28;5036415;28;20040;-80
2023/09/09 02:55:00;;;;;;;10.20;7.22;;;;;;;-142.57;72.60;115900.28;5056521;28;20033;-79
2023/09/09 02:57:25;;;;;;;10.02;6.95;;;;;;;-142.57;72.66;115900.28;5062140;28;20037;-78
2023/09/09 02:59:51;;;;;;;13.00;7.82;;;;;;;-142.57;73.77;115900.28;5066439;28;20037;-79
2023/09/09 03:02:16;;;;;;;11.00;7.38;;;;;;;-142.57;75.19;115900.28;5060817;28;20116;-76
2023/09/09 03:04:42;;;;;;;12.80;7.13;;;;;;;-142.57;78.05;115900.28;5042124;28;20025;-79
2023/09/09 03:07:08;;;;;;;12.38;8.15;;;;;;;-142.57;80.50;115900.28;5056875;28;20037;-78
2023/09/09 03:09:36;;;;;;;10.98;7.55;;;;;;;-142.57;83.34;115900.28;5074651;28;20025;-79
2023/09/09 03:12:02;;;;;;;16.00;8.15;;;;;;;-142.57;84.13;115900.28;5057845;28;20039;-78
2023/09/09 03:14:49;;;;;;;14.68;7.85;;;;;;;-142.57;85.81;115900.28;5060386;28;20045;-80
2023/09/09 03:17:15;;;;;;;11.63;8.52;;;;;;;-142.57;86.30;115900.28;5035089;28;20487;-78
2023/09/09 03:19:40;;;;;;;15.23;8.00;;;;;;;-142.57;88.15;115900.28;5034651;28;20035;-78
2023/09/09 03:22:06;;;;;;;15.50;8.48;;;;;;;-142.57;88.35;115900.28;5052951;28;20114;-79
2023/09/09 03:24:32;;;;;;;10.98;8.07;;;;;;;-142.57;87.94;115900.28;5035001;28;20384;-84
2023/09/09 03:26:58;;;;;;;12.63;8.40;;;;;;;-142.57;87.54;115900.28;5035463;28;20061;-81
2023/09/09 03:29:24;;;;;;;14.82;8.07;;;;;;;-142.57;88.22;115900.28;5035602;28;20499;-78
2023/09/09 03:31:50;;;;;;;15.98;7.90;;;;;;;-142.57;88.29;115900.28;5035303;28;20107;-83
2023/09/09 03:34:17;;;;;;;12.85;8.57;;;;;;;-142.57;88.60;115900.28;5036950;28;20037;-81
2023/09/09 03:36:43;;;;;;;16.90;8.63;;;;;;;-142.57;87.75;115900.28;5056939;28;20392;-82
2023/09/09 03:39:09;;;;;;;12.20;7.68;;;;;;;-142.57;86.96;115900.28;5057131;28;20039;-80
2023/09/09 03:41:34;;;;;;;15.85;7.97;;;;;;;-142.57;87.30;115900.28;5038822;28;20029;-85
2023/09/09 03:44:00;;;;;;;16.70;7.63;;;;;;;-142.57;87.16;115900.28;5057705;28;20029;-81
2023/09/09 03:46:26;;;;;;;17.27;8.27;;;;;;;-142.57;86.51;115900.28;5038848;28;20041;-80
2023/09/09 03:48:53;;;;;;;9.43;7.18;;;;;;;-142.57;85.81;115900.28;5040229;28;20032;-81
2023/09/09 03:51:19;;;;;;;9.93;7.20;;;;;;;-142.57;84.86;115900.28;5044308;28;20535;-83
2023/09/09 03:53:45;;;;;;;12.88;7.28;;;;;;;-142.57;83.93;115900.28;5042262;28;20037;-82
2023/09/09 03:56:11;;;;;;;14.65;7.95;;;;;;;-142.57;84.74;115900.28;5042494;28;20036;-82
2023/09/09 03:58:36;;;;;;;12.23;7.82;;;;;;;-142.57;86.33;115900.28;5042653;28;20040;-81
2023/09/09 04:01:08;;;;;;;13.93;7.90;;;;;;;-142.57;85.01;115900.28;5038807;28;20083;-85
2023/09/09 04:03:35;;;;;;;16.93;7.37;;;;;;;-142.57;84.48;115900.28;5042999;28;20040;-82
2023/09/09 04:06:04;;;;;;;11.50;7.03;;;;;;;-142.57;85.09;115900.28;5075956;28;20285;-81
2023/09/09 04:08:33;;;;;;;12.55;7.25;;;;;;;-142.57;84.49;115900.28;5072416;28;20021;-83
2023/09/09 04:11:00;;;;;;;11.90;7.00;;;;;;;-142.57;84.30;115900.28;5038619;28;20040;-81
2023/09/09 04:13:26;;;;;;;13.38;7.90;;;;;;;-142.57;84.16;115900.28;5058325;28;20120;-80
2023/09/09 04:15:53;;;;;;;14.40;7.90;;;;;;;-142.57;83.36;115900.28;5041003;28;20044;-83
2023/09/09 04:18:19;;;;;;;10.95;7.22;;;;;;;-142.57;82.19;115900.28;5057388;28;20021;-79
2023/09/09 04:20:45;;;;;;;13.52;7.60;;;;;;;-142.57;83.88;115900.28;5078028;28;20131;-78
2023/09/09 04:23:11;;;;;;;15.98;7.65;;;;;;;-142.57;83.55;115900.28;5058946;28;20041;-78
2023/09/09 04:25:36;;;;;;;13.15;7.00;;;;;;;-142.57;83.70;115900.28;5057572;28;20398;-79
2023/09/09 04:28:03;;;;;;;11.27;7.32;;;;;;;-142.57;84.34;115900.28;5056226;28;20032;-77
2023/09/09 04:30:29;;;;;;;10.75;7.13;;;;;;;-142.57;84.69;115900.28;5073398;28;20506;-79
2023/09/09 04:32:56;;;;;;;8.10;7.03;;;;;;;-142.57;84.79;115900.28;5057548;28;20479;-78
2023/09/09 04:35:21;;;;;;;13.55;7.38;;;;;;;-142.57;85.00;115900.28;5065432;28;20025;-80
2023/09/09 04:37:50;;;;;;;12.55;7.47;;;;;;;-142.57;84.04;115900.28;5065922;28;20036;-77
2023/09/09 04:40:16;;;;;;;9.52;7.05;;;;;;;-142.57;84.48;115900.28;5055879;28;20487;-79
2023/09/09 04:42:42;;;;;;;10.73;7.38;;;;;;;-142.57;84.31;115900.28;5074790;28;20616;-80
2023/09/09 04:45:09;;;;;;;11.10;7.15;;;;;;;-142.57;82.80;115900.28;5074033;28;20104;-80
2023/09/09 04:47:34;;;;;;;11.50;7.47;;;;;;;-142.57;81.75;115900.28;5056775;28;20074;-82
2023/09/09 04:50:00;;;;;;;13.40;7.60;;;;;;;-142.57;81.22;115900.28;5053927;28;20032;-83
2023/09/09 04:52:26;;;;;;;12.60;6.90;;;;;;;-142.57;80.93;115900.28;5055368;28;20451;-79
2023/09/09 04:54:51;;;;;;;18.00;7.10;;;;;;;-142.57;81.59;115900.28;5045147;28;20095;-81
2023/09/09 04:57:17;;;;;;;10.50;6.47;;;;;;;-142.57;81.67;115900.28;5055742;28;20044;-80
2023/09/09 04:59:43;;;;;;;11.18;6.90;;;;;;;-142.57;80.87;115900.28;5044338;28;20032;-83
2023/09/09 05:02:08;;;;;;;10.23;7.28;;;;;;;-142.57;81.54;115900.28;5073855;28;20036;-81
2023/09/09 05:04:34;;;;;;;15.18;7.10;;;;;;;-142.57;82.49;115900.28;5049914;28;20098;-82
2023/09/09 05:07:00;;;;;;;19.10;7.72;;;;;;;-142.57;83.16;115900.28;5052232;28;20120;-78
2023/09/09 05:09:27;;;;;;;24.38;8.02;;;;;;;-142.57;82.53;115900.28;5053143;28;20029;-80
2023/09/09 05:11:53;;;;;;;16.67;7.47;;;;;;;-142.57;81.04;115900.28;5071657;28;20044;-78
2023/09/09 05:14:18;;;;;;;16.50;7.45;;;;;;;-142.57;78.73;115900.28;5056235;28;20078;-81
2023/09/09 05:16:46;;;;;;;20.55;7.00;;;;;;;-142.57;79.46;115900.28;5055152;28;20052;-81
2023/09/09 05:19:12;;;;;;;25.48;7.32;;;;;;;-142.57;76.20;115900.28;5054876;28;20039;-81
2023/09/09 05:21:38;;;;;;;18.35;7.38;;;;;;;-142.57;71.79;115900.28;5058368;28;20029;-81
2023/09/09 05:24:04;;;;;;;19.77;7.38;;;;;;;-142.57;71.19;115900.28;5056547;28;20033;-82
2023/09/09 05:26:30;;;;;;;19.85;7.43;;;;;;;-142.57;66.82;115900.28;5056008;28;20032;-81
2023/09/09 05:28:56;;;;;;;19.33;6.38;;;;;;;-142.57;63.10;115900.28;5073781;28;20024;-80
2023/09/09 05:31:22;;;;;;;19.35;6.28;;;;;;;-142.57;61.55;115900.28;5055927;28;20043;-82
2023/09/09 05:33:47;;;;;;;23.70;7.40;;;;;;;-142.57;62.33;115900.28;5056013;28;20032;-79
2023/09/09 05:36:14;;;;;;;30.63;6.50;;;;;;;-142.57;59.19;115900.28;5055993;28;20043;-81
2023/09/09 05:38:39;;;;;;;11.52;6.75;;;;;;;-142.57;59.33;115900.28;5055560;28;20120;-79
2023/09/09 05:41:05;;;;;;;16.10;6.30;;;;;;;-142.57;59.88;115900.28;5058223;28;20391;-81
2023/09/09 05:43:30;;;;;;;10.45;5.63;;;;;;;-142.57;55.24;115900.28;5074754;28;20094;-77
2023/09/09 05:45:56;;;;;;;14.40;6.85;;;;;;;-142.57;54.82;115900.28;5055306;28;20029;-81
2023/09/09 05:48:22;;;;;;;9.50;5.40;;;;;;;-142.57;55.04;115900.28;5055620;28;20048;-78
2023/09/09 05:50:49;;;;;;;14.43;5.80;;;;;;;-142.57;51.90;115900.28;5074251;28;20028;-78
2023/09/09 05:53:15;;;;;;;16.17;5.65;;;;;;;-142.57;48.89;115900.28;5056042;28;20178;-82
2023/09/09 05:55:40;;;;;;;11.10;5.78;;;;;;;-142.57;48.17;115900.28;5042151;28;20082;-82
2023/09/09 05:58:06;;;;;;;17.88;5.88;;;;;;;-142.57;47.15;115900.28;5080476;28;20491;-80
2023/09/09 06:00:33;;;;;;;13.13;5.90;;;;;;;-142.57;46.03;115900.28;5073113;28;20047;-80
2023/09/09 06:02:58;;;;;;;11.25;5.68;;;;;;;-142.57;47.89;115900.28;5072681;28;20025;-80
2023/09/09 06:05:24;;;;;;;11.43;5.50;;;;;;;-142.57;49.58;115900.28;5074059;28;20514;-83
2023/09/09 06:07:50;;;;;;;10.98;5.60;;;;;;;-142.57;49.61;115900.28;5070307;28;20025;-80
2023/09/09 06:10:15;;;;;;;14.80;5.60;;;;;;;-142.57;50.01;115900.28;5070803;28;20127;-82
2023/09/09 06:12:41;;;;;;;11.50;6.07;;;;;;;-142.57;49.80;115900.28;5054893;28;20056;-87
2023/09/09 06:15:07;;;;;;;10.10;4.68;;;;;;;-142.57;47.62;115900.28;5054363;28;20074;-80
2023/09/09 06:17:36;;;;;;;12.00;5.25;;;;;;;-142.57;43.96;115900.28;5071602;28;20467;-83
2023/09/09 06:20:01;;;;;;;14.60;5.97;;;;;;;-142.57;45.86;115900.28;5055029;28;20036;-83
2023/09/09 06:22:28;;;;;;;13.00;6.22;;;;;;;-142.57;44.47;115900.28;5055258;28;20058;-84
2023/09/09 06:24:54;;;;;;;10.40;5.60;;;;;;;-142.57;45.53;115900.28;5073343;28;20056;-83
2023/09/09 06:27:21;;;;;;;10.68;5.32;;;;;;;-142.57;46.44;115900.28;5055069;28;20430;-81
2023/09/09 06:29:46;;;;;;;10.63;5.78;;;;;;;-142.57;46.92;115900.28;5073033;28;20024;-78
2023/09/09 06:32:12;;;;;;;10.20;6.13;;;;;;;-142.57;45.13;115900.28;5073824;28;20033;-80
2023/09/09 06:34:38;;;;;;;13.48;4.88;;;;;;;-142.57;44.87;115900.28;5073405;28;20045;-83
2023/09/09 06:37:03;;;;;;;15.02;5.63;;;;;;;-142.57;45.66;115900.28;5071836;28;20033;-82
2023/09/09 06:39:29;;;;;;;9.45;5.38;;;;;;;-142.57;44.51;115900.28;5073120;28;20037;-80
2023/09/09 06:41:54;;;;;;;14.23;5.00;;;;;;;-142.57;41.39;115900.28;5054912;28;20047;-87
2023/09/09 06:44:25;;;;;;;15.85;5.20;;;;;;;-142.57;40.65;115900.28;5055621;28;20458;-85
2023/09/09 06:46:50;;;;;;;15.40;5.88;;;;;;;-142.57;40.36;115900.28;5073625;28;20059;-79
2023/09/09 06:49:15;;;;;;;9.52;5.88;;;;;;;-142.57;41.21;115900.28;5073081;28;20047;-82
2023/09/09 06:51:41;;;;;;;18.50;5.35;;;;;;;-142.57;41.21;115900.28;5073229;28;20092;-84
2023/09/09 06:54:06;;;;;;;9.70;5.10;;;;;;;-142.57;39.43;115900.28;5072201;28;20492;-86
2023/09/09 06:56:32;;;;;;;9.15;5.15;;;;;;;-142.57;40.42;115900.28;5073102;28;20036;-90
2023/09/09 06:58:57;;;;;;;15.90;4.82;;;;;;;-142.57;38.21;115900.28;5072977;28;20021;-84
2023/09/09 07:01:23;;;;;;;15.20;5.00;;;;;;;-142.57;36.31;115900.28;5073237;28;20032;-83
2023/09/09 07:03:48;;;;;;;9.48;5.47;;;;;;;-142.57;38.62;115900.28;5076058;28;20044;-84
2023/09/09 07:06:14;;;;;;;13.07;5.32;;;;;;;-142.57;39.51;115900.28;5070463;28;20854;-83
2023/09/09 07:08:40;;;;;;;20.15;5.53;;;;;;;-142.57;39.19;115900.28;5072479;28;20471;-80
2023/09/09 07:11:06;;;;;;;19.30;5.30;;;;;;;-142.57;40.52;115900.28;5076460;28;20027;-82
2023/09/09 07:13:32;;;;;;;18.95;6.38;;;;;;;-142.57;40.63;115900.28;5076809;28;20103;-83
2023/09/09 07:15:58;;;;;;;16.38;5.40;;;;;;;-142.57;41.44;115900.28;5077109;28;20036;-79
2023/09/09 07:18:24;;;;;;;12.48;6.40;;;;;;;-142.57;41.99;115900.28;5077844;28;20483;-84
2023/09/09 07:20:49;;;;;;;12.18;5.35;;;;;;;-142.57;41.66;115900.28;5081870;28;20037;-82
2023/09/09 07:23:15;;;;;;;13.02;5.75;;;;;;;-142.57;39.47;115900.28;5081288;28;20032;-82
2023/09/09 07:25:42;;;;;;;9.88;5.15;;;;;;;-142.57;38.57;115900.28;5080657;28;20028;-82
2023/09/09 07:28:08;;;;;;;16.95;5.82;;;;;;;-142.57;37.23;115900.28;5080012;28;20032;-80
2023/09/09 07:30:34;;;;;;;13.05;5.45;;;;;;;-142.57;36.82;115900.28;5077947;28;20081;-80
2023/09/09 07:32:59;;;;;;;10.20;5.47;;;;;;;-142.57;36.56;115900.28;5076476;28;20126;-80
2023/09/09 07:35:25;;;;;;;13.60;5.45;;;;;;;-142.57;35.41;115900.28;5076811;28;20463;-78
2023/09/09 07:37:51;;;;;;;9.30;5.15;;;;;;;-142.57;33.46;115900.28;5076289;28;20109;-81
2023/09/09 07:40:17;;;;;;;9.25;5.25;;;;;;;-142.57;34.51;115900.28;5075994;28;20036;-81
2023/09/09 07:42:42;;;;;;;7.40;4.53;;;;;;;-142.57;35.48;115900.28;5076240;28;20029;-80
2023/09/09 07:45:08;;;;;;;21.80;5.07;;;;;;;-142.57;34.53;115900.28;5075922;28;20127;-79
2023/09/09 07:47:33;;;;;;;16.85;4.50;;;;;;;-142.57;33.26;115900.28;5076311;28;20033;-83
2023/09/09 07:49:59;;;;;;;12.13;5.63;;;;;;;-142.57;33.49;115900.28;5076200;28;20117;-84
2023/09/09 07:52:24;;;;;;;13.57;5.40;;;;;;;-142.57;34.64;115900.28;5076184;28;20110;-80
2023/09/09 07:54:52;;;;;;;9.02;5.50;;;;;;;-142.57;34.77;115900.28;5074648;28;20036;-80
2023/09/09 07:57:17;;;;;;;10.43;4.50;;;;;;;-142.57;32.73;115900.28;5076215;28;20035;-78
2023/09/09 07:59:43;;;;;;;9.30;5.10;;;;;;;-142.57;31.36;115900.28;5076099;28;20479;-81
2023/09/09 08:02:08;;;;;;;9.80;4.72;;;;;;;-142.57;31.67;115900.28;5058161;28;20048;-84
2023/09/09 08:04:34;;;;;;;10.40;4.95;;;;;;;-142.57;30.99;115900.28;5076312;28;20028;-82
2023/09/09 08:07:00;;;;;;;9.65;4.97;;;;;;;-142.57;32.08;115900.28;5059193;28;20039;-79
2023/09/09 08:09:26;;;;;;;16.67;5.68;;;;;;;-142.57;32.82;115900.28;5058803;28;20027;-78
2023/09/09 08:11:52;;;;;;;8.48;4.35;;;;;;;-142.57;32.10;115900.28;5076725;28;20387;-79
2023/09/09 08:14:18;;;;;;;12.35;4.97;;;;;;;-142.57;32.56;115900.28;5076369;28;20047;-78
2023/09/09 08:16:44;;;;;;;12.48;4.93;;;;;;;-142.57;32.97;115900.28;5076481;28;20039;-79
2023/09/09 08:19:09;;;;;;;13.00;6.20;;;;;;;-142.57;33.05;115900.28;5076624;28;20036;-80
2023/09/09 08:21:35;;;;;;;13.50;6.57;;;;;;;-142.57;32.40;115900.28;5076645;28;20021;-81
2023/09/09 08:24:01;;;;;;;10.88;5.43;;;;;;;-142.57;31.82;115900.28;5075189;28;20478;-80
2023/09/09 08:26:27;;;;;;;15.65;5.88;;;;;;;-142.57;31.87;115900.28;5078526;28;20032;-79
2023/09/09 08:28:54;;;;;;;17.45;8.00;;;;;;;-142.57;32.29;115900.28;5074369;28;20045;-78
2023/09/09 08:31:20;;;;;;;12.73;6.90;;;;;;;-142.57;32.45;115900.28;5074076;28;20040;-79
2023/09/09 08:33:48;;;;;;;21.65;7.25;;;;;;;-142.57;32.64;115900.28;5074903;28;20036;-80
2023/09/09 08:36:15;;;;;;;22.65;7.57;;;;;;;-142.57;32.19;115900.28;5075159;28;20574;-79
2023/09/09 08:38:41;;;;;;;10.00;6.15;;;;;;;-142.57;32.53;115900.28;5075208;28;20094;-81
2023/09/09 08:41:24;;;;;;;13.52;6.65;;;;;;;-142.57;32.79;115900.28;5075430;28;20033;-80
2023/09/09 08:44:00;;;;;;;20.73;7.10;;;;;;;-142.57;33.37;115900.28;5057654;28;20036;-79
2023/09/09 08:46:25;;;;;;;11.93;6.10;;;;;;;-142.57;32.96;115900.28;5075124;28;20061;-83
2023/09/09 08:48:52;;;;;;;12.60;6.55;;;;;;;-142.57;32.88;115900.28;5075218;28;20025;-78
2023/09/09 08:51:24;;;;;;;16.60;7.43;;;;;;;-142.57;33.02;115900.28;5073705;28;20036;-80
2023/09/09 08:53:51;;;;;;;15.13;6.82;;;;;;;-142.57;32.81;115900.28;5074846;28;20036;-79
2023/09/09 08:56:18;;;;;;;23.20;8.40;;;;;;;-142.57;33.76;115900.28;5075015;28;20086;-80
2023/09/09 08:58:44;;;;;;;21.77;7.93;;;;;;;-142.57;31.24;115900.28;5075042;28;20116;-77
2023/09/09 09:01:12;;;;;;;19.98;7.13;;;;;;;-142.57;31.03;115900.28;5074442;28;20040;-81
2023/09/09 09:03:38;;;;;;;23.35;7.32;;;;;;;-142.57;32.20;115900.28;5041084;28;20028;-79
2023/09/09 09:06:05;;;;;;;20.40;6.45;;;;;;;-142.57;31.75;115900.28;5075594;28;20041;-79
2023/09/09 09:08:31;;;;;;;17.25;7.38;;;;;;;-142.57;32.79;115900.28;5056561;28;20097;-82
2023/09/09 09:10:58;;;;;;;15.35;6.18;;;;;;;-142.57;31.28;115900.28;5075151;28;20449;-81
2023/09/09 09:13:24;;;;;;;14.88;6.57;;;;;;;-142.57;30.85;115900.28;5074563;28;20082;-82
2023/09/09 09:15:49;;;;;;;16.02;7.10;;;;;;;-142.57;31.32;115900.28;5074628;28;20033;-80
2023/09/09 09:18:15;;;;;;;14.07;7.13;;;;;;;-142.57;30.95;115900.28;5074191;28;20036;-83
2023/09/09 09:20:41;;;;;;;12.27;5.65;;;;;;;-142.57;31.05;115900.28;5073104;28;20489;-79
2023/09/09 09:23:12;;;;;;;15.57;6.22;;;;;;;-142.57;30.76;115900.28;5068362;28;20032;-79
2023/09/09 09:25:44;;;;;;;14.90;6.45;;;;;;;-142.57;30.53;115900.28;5073558;28;20389;-84
2023/09/09 09:28:09;;;;;;;10.73;5.88;;;;;;;-142.57;32.07;115900.28;5080382;28;20257;-82
2023/09/09 09:30:35;;;;;;;15.20;6.53;;;;;;;-142.57;32.51;115900.28;5073753;28;20108;-82
2023/09/09 09:33:00;;;;;;;25.63;6.93;;;;;;;-142.57;31.77;115900.28;5043303;28;20059;-85
2023/09/09 09:35:28;;;;;;;20.20;6.82;;;;;;;-142.57;31.76;115900.28;5038347;28;20125;-80
2023/09/09 09:38:02;;;;;;;15.70;6.45;;;;;;;-142.57;32.15;115900.28;5069575;28;20016;-82
2023/09/09 09:40:30;;;;;;;16.80;6.32;;;;;;;-142.57;31.53;115900.28;5073127;28;20490;-80
2023/09/09 09:42:56;;;;;;;27.77;6.60;;;;;;;-142.57;31.29;115900.28;5070792;28;20051;-82
2023/09/09 09:45:25;;;;;;;12.05;6.05;;;;;;;-142.57;31.73;115900.28;5073979;28;20089;-80
2023/09/09 09:47:51;;;;;;;10.68;5.93;;;;;;;-142.57;31.41;115900.28;5077908;28;20060;-78
2023/09/09 09:50:18;;;;;;;11.50;6.30;;;;;;;-142.57;31.67;115900.28;5075336;28;20093;-80
2023/09/09 09:52:48;;;;;;;9.48;6.20;;;;;;;-142.57;31.76;115900.28;5069951;28;20033;-80
2023/09/09 09:55:17;;;;;;;14.48;5.78;;;;;;;-142.57;31.57;115900.28;5073716;28;20368;-79
2023/09/09 09:57:47;;;;;;;12.38;5.85;;;;;;;-142.57;31.79;115900.28;5074684;28;20028;-81
2023/09/09 10:00:13;;;;;;;15.13;5.57;;;;;;;-142.57;31.44;115900.28;5076026;28;20040;-79
2023/09/09 10:02:45;;;;;;;11.73;5.65;;;;;;;-142.57;30.87;115900.28;5094417;28;20040;-79
2023/09/09 10:05:14;;;;;;;8.45;5.93;;;;;;;-142.57;30.32;115900.28;5091512;28;20037;-80
2023/09/09 10:07:45;;;;;;;8.60;4.65;;;;;;;-142.57;30.11;115900.28;5091100;28;20032;-81
2023/09/09 10:10:15;;;;;;;14.33;5.23;;;;;;;-142.57;30.57;115900.28;5089601;28;20032;-80
2023/09/09 10:13:25;;;;;;;11.15;5.72;;;;;;;-142.57;30.74;115900.28;5077927;28;20040;-81
2023/09/09 10:15:54;;;;;;;10.65;5.05;;;;;;;-142.57;30.09;115900.28;4976683;28;20501;-79
2023/09/09 10:18:22;;;;;;;12.82;5.10;;;;;;;-142.57;29.57;115900.28;4992214;28;20065;-83
2023/09/09 10:20:49;;;;;;;12.02;5.70;;;;;;;-142.57;28.76;115900.28;4993090;28;20501;-79
2023/09/09 10:23:16;;;;;;;16.23;5.25;;;;;;;-142.57;29.42;115900.28;4992330;28;20038;-83
2023/09/09 10:25:42;;;;;;;10.77;5.10;;;;;;;-142.57;29.14;115900.28;5035433;28;20105;-79
2023/09/09 10:28:10;;;;;;;12.70;5.05;;;;;;;-142.57;29.06;115900.28;5073729;28;20383;-82
2023/09/09 10:30:36;;;;;;;6.22;4.68;;;;;;;-142.57;28.47;115900.28;5074048;28;20032;-82
2023/09/09 10:33:06;;;;;;;16.00;4.75;;;;;;;-142.57;28.63;115900.28;5073374;28;20078;-83
2023/09/09 10:35:35;;;;;;;8.90;4.18;;;;;;;-142.57;27.61;115900.28;5073422;28;20441;-82
2023/09/09 10:38:04;;;;;;;7.75;4.10;;;;;;;-142.57;27.22;115900.28;5052252;28;20052;-82
2023/09/09 10:40:30;;;;;;;8.15;3.85;;;;;;;-142.57;26.85;115900.28;5070550;28;20474;-85
2023/09/09 10:42:55;;;;;;;7.15;3.67;;;;;;;-142.57;26.84;115900.28;5065394;28;20067;-83
2023/09/09 10:45:29;;;;;;;6.28;3.75;;;;;;;-142.57;27.49;115900.28;5072550;28;20035;-79
2023/09/09 10:47:57;;;;;;;11.05;3.95;;;;;;;-142.57;27.28;115900.28;5081452;28;20040;-79
2023/09/09 10:50:38;;;;;;;6.55;3.50;;;;;;;-142.57;27.20;115900.28;5081611;28;20351;-80
2023/09/09 10:53:25;;;;;;;4.47;3.50;;;;;;;-142.57;27.52;115900.28;5062253;28;20569;-78
2023/09/09 10:55:54;;;;;;;7.88;3.70;;;;;;;-142.57;27.07;115900.28;5080384;28;20121;-80
2023/09/09 10:58:20;;;;;;;8.57;3.67;;;;;;;-142.57;26.91;115900.28;5078447;28;20028;-79
2023/09/09 11:00:50;;;;;;;12.07;4.20;;;;;;;-142.57;27.11;115900.28;5080387;28;20035;-83